Time;durP1;ratioP1;P1;durP2;ratioP2;P2;SDS_P1;SDS_P2;PMS_P1;PMS_P2;Temp;Humidity;BMP_temperature;BMP_pressure;BME280_temperature;BME280_humidity;BME280_pressure;Samples;Min_cycle;Max_cycle;Signal;HPM_P1;HPM_P2
2022/01/09 00:00:51;;;;;;;3.40;2.30;;;;;;;-1.20;76.99;98371.30;104474;1281;73130;-23
2022/01/09 00:03:20;;;;;;;8.40;3.50;;;;;;;-1.41;77.20;98370.98;104582;1279;61070;-23
2022/01/09 00:05:48;;;;;;;5.30;2.50;;;;;;;-1.62;77.78;98362.34;104606;1281;61641;-23
2022/01/09 00:08:17;;;;;;;2.70;1.70;;;;;;;-1.85;78.57;98359.59;104601;1280;74556;-23
2022/01/09 00:11:05;;;;;;;1.90;1.70;;;;;;;-2.00;79.60;98354.42;104564;1280;77074;-23
2022/01/09 00:13:34;;;;;;;3.30;2.00;;;;;;;-1.49;78.31;98348.18;104620;1280;74554;-23
2022/01/09 00:16:02;;;;;;;2.20;1.90;;;;;;;-1.25;77.13;98347.32;104603;1280;61143;-24
2022/01/09 00:18:30;;;;;;;2.70;1.90;;;;;;;-1.36;77.35;98343.17;104433;1281;61074;-23
2022/01/09 00:20:59;;;;;;;3.50;2.10;;;;;;;-1.63;77.80;98336.02;104538;1279;74586;-23
2022/01/09 00:23:27;;;;;;;4.10;2.00;;;;;;;-1.90;78.79;98334.61;104739;1277;74502;-25
2022/01/09 00:25:55;;;;;;;2.70;1.90;;;;;;;-2.13;79.34;98326.33;104691;1276;73640;-24
2022/01/09 00:28:23;;;;;;;3.50;2.40;;;;;;;-1.88;79.40;98323.27;104663;1277;61744;-23
2022/01/09 00:30:52;;;;;;;2.50;2.10;;;;;;;-1.38;77.53;98315.86;104728;1277;61227;-23
2022/01/09 00:33:21;;;;;;;8.90;2.00;;;;;;;-1.28;76.83;98313.70;104731;1277;74329;-22
2022/01/09 00:35:50;;;;;;;4.00;2.20;;;;;;;-1.49;77.02;98309.55;104722;1277;74475;-22
2022/01/09 00:38:18;;;;;;;4.90;2.40;;;;;;;-1.79;77.63;98303.67;104665;1276;74535;-23
2022/01/09 00:40:46;;;;;;;3.80;2.60;;;;;;;-2.07;78.84;98300.92;104714;1278;61522;-23
2022/01/09 00:43:15;;;;;;;2.20;1.90;;;;;;;-2.11;79.79;98296.16;104641;1276;61119;-24
2022/01/09 00:45:43;;;;;;;5.20;2.50;;;;;;;-1.63;78.36;98299.39;104632;1276;75586;-22
2022/01/09 00:48:12;;;;;;;3.20;1.80;;;;;;;-1.45;77.45;98299.50;104611;1276;75854;-23
2022/01/09 00:50:41;;;;;;;4.30;1.90;;;;;;;-1.66;77.45;98296.48;104490;1277;74405;-23
2022/01/09 00:53:09;;;;;;;2.40;2.20;;;;;;;-1.87;78.17;98292.45;104639;1277;61142;-22
2022/01/09 00:55:37;;;;;;;2.30;1.30;;;;;;;-2.09;78.97;98282.30;104547;1277;61154;-22
2022/01/09 00:58:05;;;;;;;1.60;1.30;;;;;;;-2.00;79.32;98284.48;104542;1277;75579;-23
2022/01/09 01:00:35;;;;;;;1.70;1.10;;;;;;;-1.54;77.80;98278.27;104615;1277;76017;-23
2022/01/09 01:03:03;;;;;;;3.70;1.60;;;;;;;-1.42;77.03;98275.36;104571;1277;74575;-23
2022/01/09 01:05:34;;;;;;;2.50;1.40;;;;;;;-1.61;77.12;98268.67;104599;1277;61863;-22
2022/01/09 01:08:04;;;;;;;4.90;2.00;;;;;;;-1.83;77.95;98267.45;104641;1276;61054;-23
2022/01/09 01:10:32;;;;;;;3.00;2.00;;;;;;;-2.05;78.47;98266.98;104475;1278;75692;-25
2022/01/09 01:13:01;;;;;;;2.60;2.00;;;;;;;-2.16;79.16;98254.38;104534;1277;76039;-24
2022/01/09 01:15:29;;;;;;;2.40;1.70;;;;;;;-1.71;78.48;98255.16;104438;1278;73441;-23
2022/01/09 01:17:57;;;;;;;3.10;1.90;;;;;;;-1.50;77.25;98245.73;104578;1277;61160;-22
2022/01/09 01:20:27;;;;;;;3.70;1.90;;;;;;;-1.65;77.30;98242.63;104575;1277;61119;-23
2022/01/09 01:22:58;;;;;;;6.50;2.60;;;;;;;-1.85;77.89;98242.17;104591;1276;74494;-22
2022/01/09 01:25:26;;;;;;;2.40;1.50;;;;;;;-2.09;78.82;98239.95;104557;1276;76370;-22
2022/01/09 01:27:54;;;;;;;5.70;2.50;;;;;;;-2.15;79.47;98233.22;104573;1277;74517;-23
2022/01/09 01:30:22;;;;;;;3.00;2.00;;;;;;;-1.63;78.04;98230.31;104550;1278;61050;-23
2022/01/09 01:32:51;;;;;;;3.00;2.00;;;;;;;-1.48;77.17;98230.31;104606;1277;61050;-23
2022/01/09 01:35:19;;;;;;;3.80;2.20;;;;;;;-1.58;77.30;98223.63;104647;1277;75575;-23
2022/01/09 01:37:48;;;;;;;2.70;1.80;;;;;;;-1.75;77.88;98226.55;104564;1277;76326;-23
2022/01/09 01:40:18;;;;;;;2.20;0.90;;;;;;;-2.01;78.42;98219.35;104617;1276;74777;-22
2022/01/09 01:42:46;;;;;;;3.20;2.20;;;;;;;-2.15;79.46;98213.67;104532;1277;61793;-22
2022/01/09 01:45:14;;;;;;;3.90;2.00;;;;;;;-1.65;78.55;98202.30;104672;1276;61018;-23
2022/01/09 01:47:45;;;;;;;1.50;1.20;;;;;;;-1.36;77.14;98206.42;104728;1277;75417;-22
2022/01/09 01:50:13;;;;;;;1.40;1.20;;;;;;;-1.46;77.02;98200.08;104706;1276;76080;-22
2022/01/09 01:52:46;;;;;;;3.60;1.60;;;;;;;-1.70;77.80;98189.45;104682;1276;74499;-22
2022/01/09 01:55:15;;;;;;;1.10;0.90;;;;;;;-1.91;78.43;98185.77;104740;1276;61322;-22
2022/01/09 01:57:43;;;;;;;3.50;1.50;;;;;;;-2.15;79.32;98189.67;104792;1276;61023;-23
2022/01/09 02:00:14;;;;;;;3.90;1.60;;;;;;;-1.87;79.30;98183.50;104698;1277;74687;-23
2022/01/09 02:02:43;;;;;;;5.00;1.60;;;;;;;-1.35;77.52;98176.77;104693;1277;75955;-23
2022/01/09 02:05:11;;;;;;;3.50;1.90;;;;;;;-1.31;77.04;98174.02;104739;1275;72949;-22
2022/01/09 02:07:41;;;;;;;2.00;1.30;;;;;;;-1.51;77.37;98172.42;104536;1277;61061;-22
2022/01/09 02:10:22;;;;;;;3.10;2.00;;;;;;;-1.77;78.13;98167.27;104589;1276;61051;-23
2022/01/09 02:12:53;;;;;;;3.90;1.70;;;;;;;-2.02;78.95;98166.84;104581;1277;75345;-22
2022/01/09 02:15:25;;;;;;;1.90;1.50;;;;;;;-2.02;79.61;98161.58;104729;1276;75839;-22
2022/01/09 02:17:53;;;;;;;3.00;2.00;;;;;;;-1.49;78.22;98159.88;104657;1277;74305;-22
2022/01/09 02:20:22;;;;;;;4.20;1.20;;;;;;;-1.30;77.40;98151.33;104723;1277;61074;-22
2022/01/09 02:22:51;;;;;;;2.70;2.00;;;;;;;-1.45;77.28;98141.98;104469;1277;61074;-23
2022/01/09 02:25:19;;;;;;;2.60;1.60;;;;;;;-1.68;77.88;98141.00;104603;1276;74071;-22
2022/01/09 02:27:47;;;;;;;2.00;1.60;;;;;;;-1.90;78.64;98137.58;104744;1276;75977;-23
2022/01/09 02:30:15;;;;;;;1.40;1.20;;;;;;;-2.11;79.58;98132.72;104601;1277;73289;-25
2022/01/09 02:32:44;;;;;;;3.40;1.50;;;;;;;-1.71;78.93;98134.15;104564;1276;61055;-23
2022/01/09 02:35:12;;;;;;;2.20;1.30;;;;;;;-1.41;77.92;98134.64;104549;1277;62144;-23
2022/01/09 02:37:40;;;;;;;6.10;1.80;;;;;;;-1.45;77.69;98129.89;104407;1276;74635;-23
2022/01/09 02:40:09;;;;;;;3.60;1.80;;;;;;;-1.68;78.16;98129.45;104587;1276;75138;-23
2022/01/09 02:42:38;;;;;;;2.30;1.90;;;;;;;-1.97;78.97;98127.31;104669;1277;74465;-23
2022/01/09 02:45:06;;;;;;;1.60;1.30;;;;;;;-2.20;79.93;98122.91;104711;1277;61122;-23
2022/01/09 02:47:36;;;;;;;1.80;1.00;;;;;;;-2.07;80.31;98115.36;104802;1277;61143;-23
2022/01/09 02:50:17;;;;;;;5.20;2.20;;;;;;;-1.47;78.88;98119.11;104649;1276;74690;-23
2022/01/09 02:52:55;;;;;;;3.70;1.70;;;;;;;-1.30;77.60;98119.15;104584;1277;76079;-23
2022/01/09 02:55:23;;;;;;;4.50;1.90;;;;;;;-1.44;77.73;98114.89;104561;1276;74139;-23
2022/01/09 02:57:59;;;;;;;2.50;1.90;;;;;;;-1.74;78.42;98104.67;104565;1277;61240;-23
2022/01/09 03:00:32;;;;;;;1.40;1.20;;;;;;;-2.03;79.34;98104.28;104605;1277;61023;-23
2022/01/09 03:03:01;;;;;;;;;;;;;;;-2.09;80.08;98095.20;104600;1277;73799;-23
2022/01/09 03:05:30;;;;;;;1.60;1.20;;;;;;;-1.56;78.86;98089.74;104747;1276;75978;-23
2022/01/09 03:07:58;;;;;;;2.80;1.60;;;;;;;-1.41;77.89;98086.80;104763;1276;74206;-23
2022/01/09 03:10:27;;;;;;;4.00;1.90;;;;;;;-1.55;78.02;98083.57;104657;1277;61134;-23
2022/01/09 03:12:56;;;;;;;1.30;1.00;;;;;;;-1.75;78.64;98080.59;104756;1277;61115;-23
2022/01/09 03:15:25;;;;;;;1.60;1.20;;;;;;;-1.98;79.06;98075.16;104759;1277;73107;-23
2022/01/09 03:17:53;;;;;;;1.90;1.10;;;;;;;-2.15;79.86;98072.50;104711;1276;76159;-23
2022/01/09 03:20:23;;;;;;;2.60;1.60;;;;;;;-1.75;79.56;98072.05;104616;1276;73436;-24
2022/01/09 03:22:51;;;;;;;2.90;2.10;;;;;;;-1.36;78.02;98070.76;104486;1277;61865;-25
2022/01/09 03:25:20;;;;;;;2.90;2.00;;;;;;;-1.44;77.32;98067.01;104589;1276;62225;-24
2022/01/09 03:27:49;;;;;;;1.60;1.20;;;;;;;-1.60;78.04;98065.08;104551;1277;75520;-24
2022/01/09 03:30:19;;;;;;;3.00;1.40;;;;;;;-1.86;78.77;98059.27;104554;1277;75733;-24
2022/01/09 03:32:48;;;;;;;1.70;1.30;;;;;;;-2.13;79.84;98052.86;104458;1275;74446;-24
2022/01/09 03:35:17;;;;;;;2.60;1.30;;;;;;;-1.92;79.79;98051.05;104566;1277;61270;-24
2022/01/09 03:37:46;;;;;;;3.30;1.70;;;;;;;-1.55;78.55;98053.76;104441;1277;61150;-24
2022/01/09 03:40:21;;;;;;;3.30;1.40;;;;;;;-1.51;78.14;98048.45;104487;1277;75400;-24
2022/01/09 03:42:51;;;;;;;4.90;2.30;;;;;;;-1.71;78.46;98052.12;104455;1276;75213;-23
2022/01/09 03:45:21;;;;;;;1.00;0.90;;;;;;;-1.97;79.61;98050.80;104545;1276;75201;-24
2022/01/09 03:47:50;;;;;;;2.40;1.50;;;;;;;-2.11;80.43;98048.53;104628;1277;61845;-24
2022/01/09 03:50:18;;;;;;;3.70;2.70;;;;;;;-1.72;79.73;98049.77;104740;1277;61157;-24
2022/01/09 03:52:49;;;;;;;5.70;2.70;;;;;;;-1.43;78.35;98051.64;104792;1276;72749;-23
2022/01/09 03:55:19;;;;;;;3.40;1.90;;;;;;;-1.48;78.18;98044.41;104736;1276;73075;-23
2022/01/09 03:57:48;;;;;;;2.70;1.90;;;;;;;-1.75;78.96;98037.14;104559;1276;71524;-23
2022/01/09 04:00:18;;;;;;;2.60;1.80;;;;;;;-1.97;79.72;98041.27;104704;1276;61056;-23
2022/01/09 04:02:48;;;;;;;1.20;1.10;;;;;;;-2.07;80.30;98037.09;104603;1278;61169;-23
2022/01/09 04:05:17;;;;;;;3.30;1.90;;;;;;;-1.60;79.28;98042.59;104792;1276;74525;-23
2022/01/09 04:07:45;;;;;;;2.70;1.80;;;;;;;-1.39;78.25;98035.44;104812;1276;74191;-23
2022/01/09 04:10:28;;;;;;;1.60;0.90;;;;;;;-1.55;78.33;98031.14;104752;1276;74583;-23
2022/01/09 04:13:00;;;;;;;2.90;1.80;;;;;;;-1.74;78.98;98030.16;104744;1276;61150;-23
2022/01/09 04:15:28;;;;;;;1.60;1.20;;;;;;;-1.95;79.48;98025.71;104679;1277;61138;-23
2022/01/09 04:17:57;;;;;;;1.70;0.90;;;;;;;-2.04;80.24;98022.71;104832;1274;74062;-22
2022/01/09 04:20:28;;;;;;;2.00;1.50;;;;;;;-1.49;79.12;98020.45;104761;1275;76660;-23
2022/01/09 04:22:56;;;;;;;1.50;1.00;;;;;;;-1.27;77.72;98021.61;104708;1274;74579;-22
2022/01/09 04:25:25;;;;;;;4.40;1.60;;;;;;;-1.41;77.75;98012.56;104727;1274;61752;-23
2022/01/09 04:27:54;;;;;;;2.90;1.70;;;;;;;-1.62;78.07;98007.95;104673;1274;61190;-25
2022/01/09 04:30:23;;;;;;;2.60;1.30;;;;;;;-1.88;78.93;98011.08;104599;1274;74663;-25
2022/01/09 04:32:51;;;;;;;2.60;1.60;;;;;;;-1.98;79.83;98007.27;104630;1274;76032;-25
2022/01/09 04:35:19;;;;;;;3.90;1.80;;;;;;;-1.48;78.93;98003.70;104601;1275;73366;-25
2022/01/09 04:37:48;;;;;;;1.20;1.10;;;;;;;-1.18;77.47;98005.16;104557;1274;61157;-23
2022/01/09 04:40:19;;;;;;;3.80;1.50;;;;;;;-1.29;77.31;97997.70;104622;1274;61083;-24
2022/01/09 04:42:53;;;;;;;2.90;1.70;;;;;;;-1.50;77.75;97998.20;104543;1275;75786;-23
2022/01/09 04:45:22;;;;;;;2.80;1.70;;;;;;;-1.77;78.53;97994.72;104580;1274;74771;-23
2022/01/09 04:47:52;;;;;;;3.00;1.60;;;;;;;-2.02;79.46;97996.93;104555;1274;73415;-23
2022/01/09 04:50:25;;;;;;;5.20;1.30;;;;;;;-1.79;79.63;97993.77;104560;1276;61093;-22
2022/01/09 04:53:01;;;;;;;4.00;2.50;;;;;;;-1.25;78.04;97987.80;104558;1275;61080;-22
2022/01/09 04:55:35;;;;;;;2.90;1.80;;;;;;;-1.19;77.18;97983.05;104561;1275;75372;-22
2022/01/09 04:58:04;;;;;;;2.40;1.20;;;;;;;-1.41;77.49;97982.62;104431;1276;74408;-22
2022/01/09 05:00:32;;;;;;;2.30;1.40;;;;;;;-1.73;78.20;97980.73;104628;1274;73528;-24
2022/01/09 05:03:01;;;;;;;2.50;1.30;;;;;;;-2.01;79.19;97981.36;104579;1274;61139;-22
2022/01/09 05:05:30;;;;;;;1.60;1.20;;;;;;;-1.96;79.77;97976.05;104712;1274;62216;-24
2022/01/09 05:07:59;;;;;;;1.20;0.80;;;;;;;-1.44;78.07;97974.40;104580;1274;75468;-22
2022/01/09 05:10:27;;;;;;;1.70;1.40;;;;;;;-1.27;77.41;97966.77;104557;1274;76340;-22
2022/01/09 05:12:56;;;;;;;1.40;1.00;;;;;;;-1.41;77.19;97967.27;104771;1274;72256;-22
2022/01/09 05:15:24;;;;;;;2.70;1.60;;;;;;;-1.68;77.91;97962.13;104674;1275;61047;-22
2022/01/09 05:17:58;;;;;;;1.90;1.10;;;;;;;-1.93;78.70;97962.45;104777;1274;61150;-23
2022/01/09 05:20:27;;;;;;;3.30;1.90;;;;;;;-1.93;79.46;97953.98;104776;1274;75269;-22
2022/01/09 05:22:55;;;;;;;1.10;0.90;;;;;;;-1.41;78.09;97950.91;104801;1274;74989;-22
2022/01/09 05:25:24;;;;;;;4.70;1.50;;;;;;;-1.31;77.11;97947.02;104587;1274;73083;-24
2022/01/09 05:27:52;;;;;;;1.90;1.40;;;;;;;-1.47;77.49;97947.50;104556;1274;61093;-24
2022/01/09 05:30:20;;;;;;;3.20;1.40;;;;;;;-1.71;78.04;97946.10;104585;1274;61737;-26
2022/01/09 05:32:48;;;;;;;2.40;1.30;;;;;;;-1.97;78.91;97948.52;104581;1274;75286;-25
2022/01/09 05:35:16;;;;;;;1.90;1.40;;;;;;;-2.14;79.85;97950.36;104546;1274;73994;-23
2022/01/09 05:37:45;;;;;;;3.40;1.10;;;;;;;-1.65;79.26;97951.45;104598;1274;74498;-22
2022/01/09 05:40:13;;;;;;;1.70;1.20;;;;;;;-1.37;77.67;97948.50;104780;1274;61141;-23
2022/01/09 05:42:41;;;;;;;1.80;1.10;;;;;;;-1.49;77.64;97949.95;104684;1274;61153;-26
2022/01/09 05:45:10;;;;;;;1.60;1.30;;;;;;;-1.72;78.22;97950.39;104620;1274;74632;-22
2022/01/09 05:47:39;;;;;;;1.60;1.00;;;;;;;-1.95;78.80;97952.17;104896;1271;74770;-25
2022/01/09 05:50:08;;;;;;;2.40;1.00;;;;;;;-2.11;79.74;97952.60;104811;1271;73379;-24
2022/01/09 05:52:36;;;;;;;4.50;1.50;;;;;;;-1.68;79.19;97952.11;104797;1272;61542;-24
2022/01/09 05:55:05;;;;;;;2.00;1.10;;;;;;;-1.33;77.69;97951.58;104911;1271;61782;-24
2022/01/09 05:57:33;;;;;;;3.90;1.70;;;;;;;-1.40;77.42;97946.61;105108;1272;75512;-24
2022/01/09 06:00:03;;;;;;;2.20;1.60;;;;;;;-1.59;77.93;97951.64;105091;1271;75048;-25
2022/01/09 06:02:31;;;;;;;1.60;1.10;;;;;;;-1.81;78.52;97954.80;105012;1271;74479;-27
2022/01/09 06:05:00;;;;;;;1.40;1.10;;;;;;;-2.07;79.45;97945.95;105156;1271;61121;-25
2022/01/09 06:07:29;;;;;;;3.20;1.70;;;;;;;-1.87;79.67;97942.94;105169;1271;61107;-24
2022/01/09 06:09:57;;;;;;;3.30;1.60;;;;;;;-1.35;78.03;97940.56;105108;1271;75835;-23
2022/01/09 06:12:25;;;;;;;2.50;1.40;;;;;;;-1.25;77.36;97940.45;105154;1273;76076;-22
2022/01/09 06:14:53;;;;;;;2.00;1.50;;;;;;;-1.39;77.63;97941.17;105107;1271;73410;-23
2022/01/09 06:17:22;;;;;;;4.70;2.20;;;;;;;-1.64;78.20;97942.01;105143;1271;61108;-23
2022/01/09 06:19:51;;;;;;;2.70;1.30;;;;;;;-1.86;78.94;97939.52;104911;1272;61693;-23
2022/01/09 06:22:21;;;;;;;3.40;1.80;;;;;;;-1.95;79.69;97939.09;104909;1271;75596;-24
2022/01/09 06:24:52;;;;;;;4.00;2.10;;;;;;;-1.45;78.63;97934.08;105117;1271;76424;-24
2022/01/09 06:27:21;;;;;;;2.70;1.20;;;;;;;-1.21;77.47;97933.89;104806;1271;74481;-24
2022/01/09 06:29:49;;;;;;;2.20;1.50;;;;;;;-1.31;77.64;97932.40;104975;1271;61137;-24
2022/01/09 06:32:17;;;;;;;1.80;1.20;;;;;;;-1.55;78.27;97932.74;104791;1271;61760;-24
2022/01/09 06:34:45;;;;;;;2.70;1.90;;;;;;;-1.75;78.82;97936.10;104826;1271;75368;-26
2022/01/09 06:37:14;;;;;;;2.60;1.30;;;;;;;-1.91;79.47;97936.36;104855;1271;76186;-24
2022/01/09 06:39:44;;;;;;;4.00;1.70;;;;;;;-1.50;79.14;97938.24;105096;1271;74451;-23
2022/01/09 06:42:12;;;;;;;5.20;2.40;;;;;;;-1.02;77.52;97933.15;105099;1271;62132;-24
2022/01/09 06:44:40;;;;;;;2.60;1.90;;;;;;;-0.98;77.06;97933.63;105168;1271;61217;-24
2022/01/09 06:47:09;;;;;;;1.50;0.90;;;;;;;-1.15;77.18;97927.50;105133;1271;74157;-25
2022/01/09 06:49:37;;;;;;;4.90;1.30;;;;;;;-1.43;77.95;97929.95;105063;1271;75782;-25
2022/01/09 06:52:06;;;;;;;3.90;2.10;;;;;;;-1.65;78.61;97931.85;105096;1271;73360;-23
2022/01/09 06:54:34;;;;;;;3.30;1.90;;;;;;;-1.80;79.19;97930.05;105146;1271;62919;-23
2022/01/09 06:57:03;;;;;;;2.60;1.60;;;;;;;-1.35;78.85;97930.37;105147;1271;61706;-24
2022/01/09 06:59:31;;;;;;;4.90;1.40;;;;;;;-0.78;77.21;97932.23;105098;1271;74293;-24
2022/01/09 07:02:00;;;;;;;1.50;1.20;;;;;;;-0.70;76.53;97930.25;105105;1271;74688;-24
2022/01/09 07:04:28;;;;;;;2.70;1.80;;;;;;;-0.90;76.57;97927.90;105116;1271;74320;-24
2022/01/09 07:06:57;;;;;;;5.00;2.00;;;;;;;-1.13;77.09;97929.27;105095;1271;61111;-24
2022/01/09 07:09:26;;;;;;;2.60;2.00;;;;;;;-1.38;77.85;97925.06;105191;1271;61042;-23
2022/01/09 07:11:54;;;;;;;2.70;1.60;;;;;;;-1.60;78.62;97924.63;105128;1271;75300;-24
2022/01/09 07:14:22;;;;;;;2.40;1.70;;;;;;;-1.51;79.04;97922.31;105139;1271;76217;-24
2022/01/09 07:16:51;;;;;;;2.60;1.50;;;;;;;-0.77;77.98;97921.28;105105;1271;74506;-24
2022/01/09 07:19:19;;;;;;;3.40;2.00;;;;;;;-0.46;76.55;97922.02;105099;1271;61622;-25
2022/01/09 07:21:47;;;;;;;2.00;1.00;;;;;;;-0.58;75.95;97917.52;105108;1271;61775;-24
2022/01/09 07:24:15;;;;;;;1.20;1.00;;;;;;;-0.84;76.54;97911.58;105078;1271;75242;-24
2022/01/09 07:26:44;;;;;;;2.30;1.80;;;;;;;-1.04;77.12;97908.55;105138;1271;75401;-24
2022/01/09 07:29:12;;;;;;;3.40;1.60;;;;;;;-1.30;77.83;97907.47;105089;1271;74253;-24
2022/01/09 07:31:41;;;;;;;2.60;1.80;;;;;;;-1.39;78.41;97904.02;105122;1271;61807;-24
2022/01/09 07:34:09;;;;;;;3.90;2.40;;;;;;;-0.81;77.80;97902.86;105141;1271;61839;-24
2022/01/09 07:36:39;;;;;;;1.90;1.50;;;;;;;-0.47;76.48;97908.41;105077;1273;72700;-24
2022/01/09 07:39:08;;;;;;;2.50;1.80;;;;;;;-0.53;76.21;97905.48;105110;1271;75940;-24
2022/01/09 07:41:37;;;;;;;8.60;3.00;;;;;;;-0.75;76.48;97899.84;105144;1271;74419;-24
2022/01/09 07:44:05;;;;;;;2.80;1.60;;;;;;;-0.98;76.80;97895.95;105112;1271;61521;-24
2022/01/09 07:46:34;;;;;;;4.10;2.00;;;;;;;-1.18;77.42;97895.77;105175;1271;61052;-25
2022/01/09 07:49:02;;;;;;;5.50;3.20;;;;;;;-1.29;78.03;97892.77;105170;1271;73458;-25
2022/01/09 07:51:30;;;;;;;9.50;4.00;;;;;;;-0.76;78.00;97891.23;105156;1271;76058;-25
2022/01/09 07:54:19;;;;;;;7.30;3.80;;;;;;;-0.16;75.87;97891.53;105083;1271;73359;-25
2022/01/09 07:56:47;;;;;;;11.80;5.20;;;;;;;-0.12;75.66;97880.90;104933;1271;61816;-25
2022/01/09 07:59:16;;;;;;;7.10;2.70;;;;;;;-0.32;75.67;97882.88;105050;1271;61050;-25
2022/01/09 08:01:49;;;;;;;11.40;4.20;;;;;;;-0.64;76.01;97881.20;105114;1271;74400;-24
2022/01/09 08:04:18;;;;;;;12.80;4.30;;;;;;;-0.89;76.74;97881.66;104656;1273;75184;-24
2022/01/09 08:06:47;;;;;;;9.40;2.70;;;;;;;-1.10;77.39;97873.61;104989;1271;74566;-28
2022/01/09 08:09:15;;;;;;;12.30;3.80;;;;;;;-0.83;77.75;97874.40;105137;1271;62810;-26
2022/01/09 08:11:43;;;;;;;6.10;2.80;;;;;;;-0.21;76.28;97876.48;105128;1273;61012;-26
2022/01/09 08:14:31;;;;;;;9.30;3.80;;;;;;;-0.05;75.51;97877.94;105068;1271;76684;-26
2022/01/09 08:16:59;;;;;;;10.90;3.60;;;;;;;-0.23;75.35;97873.86;105155;1271;74304;-26
2022/01/09 08:19:30;;;;;;;8.80;3.80;;;;;;;-0.52;75.96;97873.73;105083;1271;73469;-26
2022/01/09 08:21:59;;;;;;;13.80;3.50;;;;;;;-0.78;76.66;97873.96;105099;1272;61124;-26
2022/01/09 08:24:27;;;;;;;15.50;4.40;;;;;;;-0.99;77.23;97867.87;105118;1271;61045;-26
2022/01/09 08:26:55;;;;;;;14.30;3.70;;;;;;;-0.93;77.75;97869.80;105102;1271;74438;-25
2022/01/09 08:29:23;;;;;;;6.90;2.10;;;;;;;-0.13;76.74;97871.27;105183;1271;76251;-26
2022/01/09 08:31:52;;;;;;;8.50;3.10;;;;;;;0.29;75.25;97871.58;105124;1271;74229;-26
2022/01/09 08:34:20;;;;;;;15.10;4.00;;;;;;;0.21;74.49;97869.01;105089;1271;60978;-26
2022/01/09 08:36:48;;;;;;;8.00;2.80;;;;;;;-0.01;74.76;97870.93;105111;1271;61048;-26
2022/01/09 08:39:17;;;;;;;12.80;3.90;;;;;;;-0.24;75.45;97866.92;105115;1271;74463;-26
2022/01/09 08:41:45;;;;;;;9.60;3.60;;;;;;;-0.48;75.93;97858.86;105159;1273;75654;-26
2022/01/09 08:44:13;;;;;;;8.20;3.70;;;;;;;-0.69;76.48;97855.21;104870;1271;339651;-27
2022/01/09 08:46:42;;;;;;;5.00;1.80;;;;;;;-0.83;77.24;97855.80;105134;1271;61617;-27
2022/01/09 08:49:10;;;;;;;7.70;3.70;;;;;;;-0.37;77.11;97850.92;105118;1271;61725;-26
2022/01/09 08:51:38;;;;;;;9.60;4.20;;;;;;;0.19;75.25;97843.34;105118;1271;75432;-26
2022/01/09 08:54:07;;;;;;;13.60;4.60;;;;;;;0.28;74.58;97846.38;105094;1271;75990;-25
2022/01/09 08:56:38;;;;;;;11.50;4.20;;;;;;;0.15;74.88;97840.13;105133;1271;71557;-25
2022/01/09 08:59:06;;;;;;;16.80;5.80;;;;;;;-0.05;75.18;97842.83;105080;1272;61154;-25
2022/01/09 09:01:44;;;;;;;17.70;5.90;;;;;;;-0.26;75.58;97840.55;105115;1271;61790;-25
2022/01/09 09:04:13;;;;;;;18.80;5.20;;;;;;;-0.48;76.48;97837.19;105169;1271;74371;-25
2022/01/09 09:06:41;;;;;;;7.00;2.90;;;;;;;-0.65;76.95;97835.92;105044;1271;75272;-26
2022/01/09 09:09:10;;;;;;;7.20;3.00;;;;;;;-0.12;76.61;97833.65;105052;1271;74404;-27
2022/01/09 09:11:39;;;;;;;6.00;3.10;;;;;;;0.48;75.04;97836.52;105029;1273;61260;-26
2022/01/09 09:14:07;;;;;;;5.80;2.50;;;;;;;0.55;74.21;97836.63;104962;1271;61216;-26
2022/01/09 09:16:36;;;;;;;4.00;2.40;;;;;;;0.39;74.40;97837.05;104777;1271;74691;-25
2022/01/09 09:19:05;;;;;;;5.30;3.00;;;;;;;0.12;74.92;97836.55;104905;1271;74605;-25
2022/01/09 09:21:34;;;;;;;3.50;2.20;;;;;;;-0.08;75.26;97835.64;105022;1271;71502;-25
2022/01/09 09:24:02;;;;;;;5.10;3.00;;;;;;;-0.25;76.05;97831.00;105184;1271;61048;-25
2022/01/09 09:26:31;;;;;;;1.30;1.10;;;;;;;-0.40;76.55;97827.21;105097;1271;61125;-25
2022/01/09 09:28:59;;;;;;;4.80;2.90;;;;;;;0.10;75.95;97824.39;105137;1271;74464;-25
2022/01/09 09:31:28;;;;;;;4.90;3.00;;;;;;;0.73;74.38;97821.55;105149;1271;75782;-25
2022/01/09 09:33:56;;;;;;;2.50;1.70;;;;;;;0.84;73.53;97818.84;105077;1271;73549;-26
2022/01/09 09:36:24;;;;;;;6.00;2.40;;;;;;;0.64;73.78;97813.88;105098;1271;60996;-25
2022/01/09 09:38:53;;;;;;;4.00;2.30;;;;;;;0.39;74.24;97810.58;104926;1271;61022;-26
2022/01/09 09:41:25;;;;;;;3.90;2.00;;;;;;;0.12;74.86;97803.95;105116;1271;75230;-25
2022/01/09 09:43:53;;;;;;;4.30;2.60;;;;;;;-0.11;75.75;97800.87;105128;1271;75969;-24
2022/01/09 09:46:23;;;;;;;2.40;1.30;;;;;;;-0.05;76.30;97800.64;105136;1271;74346;-24
2022/01/09 09:48:53;;;;;;;4.30;2.80;;;;;;;0.68;75.22;97796.55;105121;1271;61108;-24
2022/01/09 09:51:27;;;;;;;4.30;2.60;;;;;;;0.99;73.89;97798.58;105090;1273;62023;-25
2022/01/09 09:53:56;;;;;;;3.90;2.00;;;;;;;0.95;73.73;97792.88;105168;1271;73822;-24
2022/01/09 09:56:25;;;;;;;5.90;3.40;;;;;;;0.72;73.73;97790.86;105142;1271;75202;-24
2022/01/09 09:58:53;;;;;;;4.50;2.80;;;;;;;0.48;74.32;97792.44;104901;1271;73316;-25
2022/01/09 10:01:30;;;;;;;5.80;3.10;;;;;;;0.29;74.58;97792.54;104599;1271;61128;-26
2022/01/09 10:04:06;;;;;;;4.90;3.40;;;;;;;0.16;74.89;97789.42;104830;1271;61119;-24
2022/01/09 10:06:45;;;;;;;3.20;1.40;;;;;;;0.12;75.77;97789.80;104995;1271;72835;-23
2022/01/09 10:09:21;;;;;;;5.60;3.20;;;;;;;0.81;74.49;97792.02;104987;1272;74530;-24
2022/01/09 10:11:57;;;;;;;4.10;2.70;;;;;;;1.09;73.08;97793.71;104877;1271;73266;-24
2022/01/09 10:14:30;;;;;;;6.40;2.60;;;;;;;1.03;73.49;97789.47;105054;1271;62396;-24
2022/01/09 10:17:21;;;;;;;5.00;2.80;;;;;;;0.80;73.88;97793.27;104646;1272;61149;-26
2022/01/09 10:20:01;;;;;;;4.70;3.30;;;;;;;0.52;74.44;97790.86;105005;1271;74494;-25
2022/01/09 10:22:38;;;;;;;5.50;3.20;;;;;;;0.28;75.21;97787.48;105081;1271;75019;-26
2022/01/09 10:25:36;;;;;;;4.40;2.60;;;;;;;0.17;75.52;97789.31;105144;1271;75010;-26
2022/01/09 10:28:12;;;;;;;4.20;2.40;;;;;;;0.07;76.13;97786.46;105088;1271;61617;-26
2022/01/09 10:30:45;;;;;;;9.00;4.50;;;;;;;0.76;75.25;97784.60;105016;1271;61308;-24
2022/01/09 10:33:16;;;;;;;5.00;3.10;;;;;;;1.30;73.82;97781.44;105109;1272;74283;-25
2022/01/09 10:35:45;;;;;;;8.00;3.60;;;;;;;1.29;73.16;97778.25;104980;1272;75105;-24
2022/01/09 10:38:22;;;;;;;6.50;3.60;;;;;;;1.10;73.65;97776.36;105084;1274;74262;-24
2022/01/09 10:40:57;;;;;;;6.20;3.40;;;;;;;0.90;73.95;97773.02;105106;1271;61726;-24
2022/01/09 10:43:27;;;;;;;5.00;3.50;;;;;;;0.61;74.36;97769.45;105124;1271;61177;-24
2022/01/09 10:45:59;;;;;;;4.80;3.40;;;;;;;0.39;74.89;97767.23;105140;1273;74247;-24
2022/01/09 10:48:41;;;;;;;5.70;3.10;;;;;;;0.26;75.51;97763.20;105080;1271;75006;-24
2022/01/09 10:51:11;;;;;;;6.90;3.60;;;;;;;0.86;75.50;97769.15;105050;1273;74243;-24
2022/01/09 10:53:43;;;;;;;6.00;3.50;;;;;;;1.51;73.80;97762.35;105074;1271;61097;-24
2022/01/09 10:56:17;;;;;;;6.70;3.60;;;;;;;1.59;72.94;97758.73;104908;1273;61156;-23
2022/01/09 10:58:47;;;;;;;9.40;5.90;;;;;;;1.39;72.93;97752.84;104983;1273;75723;-23
2022/01/09 11:01:26;;;;;;;5.40;3.60;;;;;;;1.16;73.36;97748.83;104900;1272;76161;-23
2022/01/09 11:03:59;;;;;;;11.00;5.70;;;;;;;0.95;74.00;97750.48;105081;1271;74359;-23
2022/01/09 11:06:30;;;;;;;9.90;5.40;;;;;;;0.75;74.34;97743.31;105111;1271;61424;-23
2022/01/09 11:09:00;;;;;;;6.50;3.20;;;;;;;0.55;74.95;97749.16;105087;1271;61097;-23
2022/01/09 11:11:33;;;;;;;7.00;5.20;;;;;;;0.96;74.93;97748.85;105003;1271;74263;-23
2022/01/09 11:14:05;;;;;;;7.00;4.20;;;;;;;1.57;73.60;97748.80;104824;1271;73690;-25
2022/01/09 11:16:43;;;;;;;8.20;4.80;;;;;;;1.63;72.76;97749.40;104953;1271;74572;-24
2022/01/09 11:19:15;;;;;;;19.80;11.70;;;;;;;1.43;72.97;97748.32;104976;1273;61180;-24
2022/01/09 11:21:52;;;;;;;40.40;22.40;;;;;;;1.27;73.46;97745.05;105107;1271;61138;-24
2022/01/09 11:24:33;;;;;;;32.00;20.10;;;;;;;1.06;73.68;97748.08;105110;1272;75546;-29
2022/01/09 11:27:22;;;;;;;16.80;10.50;;;;;;;0.80;74.19;97748.14;105115;1271;75955;-26
2022/01/09 11:29:58;;;;;;;70.70;47.40;;;;;;;0.55;74.86;97747.30;105113;1273;73416;-25
2022/01/09 11:33:05;;;;;;;10.90;8.90;;;;;;;0.38;75.58;97748.14;104935;1271;61181;-25
2022/01/09 11:35:52;;;;;;;38.10;24.90;;;;;;;1.17;75.04;97746.71;104855;1271;61071;-26
2022/01/09 11:38:45;;;;;;;21.50;14.80;;;;;;;1.69;73.46;97735.50;104847;1273;75516;-27
2022/01/09 11:41:17;;;;;;;69.00;42.20;;;;;;;1.56;72.94;97731.70;105110;1273;75704;-27